createdAt,value
2022-12-04T00:04:45.712Z,100090.47
2022-12-04T00:09:47.069Z,100077.28
2022-12-04T00:15:23.432Z,100079.84
2022-12-04T00:20:10.010Z,100062.19
2022-12-04T00:25:11.380Z,100079.69
2022-12-04T00:30:13.149Z,100102.78
2022-12-04T00:35:14.653Z,100109.66
2022-12-04T00:40:16.139Z,100106.38
2022-12-04T00:45:17.497Z,100105.94
2022-12-04T00:50:18.884Z,100111.22
2022-12-04T00:55:22.338Z,100093.94
2022-12-04T01:00:24.074Z,100109.00
2022-12-04T01:05:25.494Z,100093.38
2022-12-04T01:10:26.877Z,100102.63
2022-12-04T01:15:28.170Z,100079.50
2022-12-04T01:20:29.545Z,100065.72
2022-12-04T01:25:31.007Z,100069.47
2022-12-04T01:30:32.359Z,100065.41
2022-12-04T01:35:33.806Z,100054.38
2022-12-04T01:40:35.126Z,100049.94
2022-12-04T01:45:47.749Z,100038.97
2022-12-04T01:50:51.924Z,100053.69
2022-12-04T01:55:53.874Z,100063.13
2022-12-04T02:01:03.752Z,100071.38
2022-12-04T02:06:07.971Z,100072.56
2022-12-04T02:11:37.905Z,100068.13
2022-12-04T02:16:48.385Z,100067.28
2022-12-04T02:21:55.333Z,100079.50
2022-12-04T02:27:09.715Z,100084.75
2022-12-04T02:32:20.266Z,100077.47
2022-12-04T02:37:34.227Z,100077.41
2022-12-04T02:42:43.690Z,100085.28
2022-12-04T02:47:46.403Z,100072.47
2022-12-04T02:52:57.326Z,100083.34
2022-12-04T02:58:04.549Z,100083.09
2022-12-04T03:03:11.139Z,100051.03
2022-12-04T03:08:19.615Z,100076.13
2022-12-04T03:13:30.787Z,100068.22
2022-12-04T03:18:37.639Z,100057.84
2022-12-04T03:23:54.934Z,100063.69
2022-12-04T03:29:18.163Z,100059.88
2022-12-04T03:34:32.595Z,100070.00
2022-12-04T03:39:43.888Z,100058.78
2022-12-04T03:45:02.016Z,100064.03
2022-12-04T03:50:13.921Z,100051.81
2022-12-04T03:55:23.672Z,100062.19
2022-12-04T04:00:25.291Z,100045.59
2022-12-04T04:05:29.885Z,100055.22
2022-12-04T04:10:31.264Z,100045.78
2022-12-04T04:15:51.736Z,100041.59
2022-12-04T04:21:17.970Z,100036.16
2022-12-04T04:26:19.609Z,100027.16
2022-12-04T04:31:45.216Z,100030.22
2022-12-04T04:37:11.306Z,100039.75
2022-12-04T04:42:30.168Z,100031.06
2022-12-04T04:47:38.284Z,100035.03
2022-12-04T04:52:44.164Z,100045.38
2022-12-04T04:57:45.594Z,100036.69
2022-12-04T05:02:48.558Z,100042.75
2022-12-04T05:07:50.123Z,100034.84
2022-12-04T05:12:51.507Z,100036.97
2022-12-04T05:17:52.819Z,100038.13
2022-12-04T05:22:54.102Z,100031.44
2022-12-04T05:27:55.396Z,100025.22
2022-12-04T05:32:57.056Z,100034.06
2022-12-04T05:37:58.450Z,100029.41
2022-12-04T05:42:59.805Z,100034.66
2022-12-04T05:48:01.193Z,100038.06
2022-12-04T05:53:02.648Z,100040.13
2022-12-04T05:58:04.510Z,100026.88
2022-12-04T06:03:05.931Z,100045.38
2022-12-04T06:08:07.426Z,100049.56
2022-12-04T06:13:08.856Z,100048.97
2022-12-04T06:18:10.151Z,100044.38
2022-12-04T06:23:11.487Z,100058.81
2022-12-04T06:28:12.770Z,100062.19
2022-12-04T06:33:14.106Z,100054.47
2022-12-04T06:38:15.395Z,100042.75
2022-12-04T06:43:16.680Z,100059.66
2022-12-04T06:48:18.011Z,100050.41
2022-12-04T06:53:20.397Z,100046.94
2022-12-04T06:58:21.703Z,100052.00
2022-12-04T07:03:24.763Z,100048.28
2022-12-04T07:08:26.039Z,100052.28
2022-12-04T07:13:27.352Z,100050.16
2022-12-04T07:18:30.187Z,100040.19
2022-12-04T07:23:31.477Z,100040.03
2022-12-04T07:28:33.427Z,100046.25
2022-12-04T07:33:35.749Z,100035.72
2022-12-04T07:38:37.120Z,100036.81
2022-12-04T07:43:39.076Z,100041.81
2022-12-04T07:48:40.962Z,100014.66
2022-12-04T07:53:42.534Z,100044.19
2022-12-04T07:58:44.126Z,100045.38
2022-12-04T08:03:48.534Z,100050.72
2022-12-04T08:08:50.558Z,100053.81
2022-12-04T08:13:57.176Z,100067.63
2022-12-04T08:18:59.603Z,100067.63
2022-12-04T08:24:01.738Z,100059.34
2022-12-04T08:29:04.464Z,100066.38
2022-12-04T08:34:07.625Z,100065.09
2022-12-04T08:39:11.236Z,100063.06
2022-12-04T08:44:12.616Z,100054.31
2022-12-04T08:49:14.165Z,100065.28
2022-12-04T08:54:15.481Z,100058.28
2022-12-04T08:59:16.842Z,100027.75
2022-12-04T09:04:19.013Z,100049.56
2022-12-04T09:09:20.319Z,100010.31
2022-12-04T09:14:25.669Z,100031.44
2022-12-04T09:19:26.993Z,100035.19
2022-12-04T09:24:30.336Z,100037.56
2022-12-04T09:29:32.456Z,100024.13
2022-12-04T09:34:33.796Z,100041.38
2022-12-04T09:39:35.233Z,100002.44
2022-12-04T09:44:44.082Z,100031.56
2022-12-04T09:50:10.167Z,100014.59
2022-12-04T09:55:17.896Z,100025.06
2022-12-04T10:00:20.282Z,100036.28
2022-12-04T10:05:31.963Z,100025.75
2022-12-04T10:10:33.284Z,100032.69
2022-12-04T10:15:46.911Z,100028.66
2022-12-04T10:21:23.602Z,100027.25
2022-12-04T10:26:33.098Z,100030.47
2022-12-04T10:31:37.745Z,100016.34
2022-12-04T10:36:40.072Z,100009.09
2022-12-04T10:41:51.957Z,99983.97
2022-12-04T10:47:01.941Z,99985.66
2022-12-04T10:52:04.703Z,99994.06
2022-12-04T10:57:08.841Z,99986.63
2022-12-04T11:02:32.637Z,99980.03
2022-12-04T11:07:37.083Z,99960.81
2022-12-04T11:12:38.540Z,99971.47
2022-12-04T11:17:40.033Z,99950.28
2022-12-04T11:22:50.872Z,99946.66
2022-12-04T11:27:55.675Z,99930.09
2022-12-04T11:32:57.911Z,99936.97
2022-12-04T11:38:09.756Z,99949.88
2022-12-04T11:43:15.458Z,99926.72
2022-12-04T11:48:18.381Z,99927.94
2022-12-04T11:53:28.815Z,99920.09
2022-12-04T11:58:44.884Z,99921.03
2022-12-04T12:04:14.277Z,99924.34
2022-12-04T12:09:35.729Z,99918.13
2022-12-04T12:14:54.193Z,99934.31
2022-12-04T12:20:13.063Z,99938.41
2022-12-04T12:25:50.381Z,99946.75
2022-12-04T12:31:22.297Z,99956.84
2022-12-04T12:36:27.039Z,99958.47
2022-12-04T12:41:41.536Z,99950.94
2022-12-04T12:46:51.482Z,99944.41
2022-12-04T12:52:01.470Z,99927.47
2022-12-04T12:57:10.254Z,99958.38
2022-12-04T13:02:28.367Z,99953.28
2022-12-04T13:07:47.651Z,99945.00
2022-12-04T13:12:57.969Z,99941.22
2022-12-04T13:18:00.252Z,99926.72
2022-12-04T13:23:36.822Z,99902.22
2022-12-04T13:29:01.490Z,99913.06
2022-12-04T13:34:18.164Z,99920.59
2022-12-04T13:39:48.644Z,99902.31
2022-12-04T13:44:56.169Z,99859.56
2022-12-04T13:50:31.648Z,99895.28
2022-12-04T13:55:35.498Z,99900.25
2022-12-04T14:00:42.230Z,99891.03
2022-12-04T14:05:47.457Z,99882.53
2022-12-04T14:11:04.381Z,99886.41
2022-12-04T14:16:42.100Z,99877.09
2022-12-04T14:21:46.099Z,99861.91
2022-12-04T14:32:23.387Z,99887.66
2022-12-04T14:37:40.243Z,99895.28
2022-12-04T14:42:41.684Z,99896.78
2022-12-04T14:48:10.571Z,99901.97
2022-12-04T14:53:35.194Z,99909.78
2022-12-04T14:58:38.887Z,99905.81
2022-12-04T15:03:44.717Z,99910.66
2022-12-04T15:08:51.139Z,99910.34
2022-12-04T15:13:52.499Z,99914.03
2022-12-04T15:18:58.416Z,99886.50
2022-12-04T15:23:59.873Z,99916.72
2022-12-04T15:29:04.579Z,99896.56
2022-12-04T15:34:13.586Z,99912.38
2022-12-04T15:39:22.548Z,99924.44
2022-12-04T15:44:28.794Z,99927.09
2022-12-04T15:49:32.511Z,99929.34
2022-12-04T15:54:36.311Z,99927.94
2022-12-04T15:59:37.927Z,99931.03
2022-12-04T16:04:44.078Z,99933.13
2022-12-04T16:09:52.672Z,99939.97
2022-12-04T16:14:55.942Z,99897.91
2022-12-04T16:19:58.611Z,99934.50
2022-12-04T16:25:00.452Z,99936.50
2022-12-04T16:30:01.932Z,99943.19
2022-12-04T16:35:03.287Z,99918.63
2022-12-04T16:40:06.420Z,99931.81
2022-12-04T16:45:22.412Z,99934.16
2022-12-04T16:50:24.817Z,99923.13
2022-12-04T16:55:35.348Z,99919.75
2022-12-04T17:00:36.755Z,99918.03
2022-12-04T17:05:38.147Z,99916.19
2022-12-04T17:10:39.690Z,99914.19
2022-12-04T17:15:40.977Z,99899.59
2022-12-04T17:20:43.457Z,99904.22
2022-12-04T17:25:44.882Z,99911.84
2022-12-04T17:30:46.686Z,99904.94
2022-12-04T17:35:48.011Z,99881.25
2022-12-04T17:41:01.020Z,99886.13
2022-12-04T17:46:09.405Z,99883.94
2022-12-04T17:51:22.409Z,99875.00
2022-12-04T17:56:24.592Z,99874.56
2022-12-04T18:01:28.920Z,99866.84
2022-12-04T18:06:36.790Z,99864.56
2022-12-04T18:11:42.136Z,99875.69
2022-12-04T18:16:52.936Z,99875.97
2022-12-04T18:21:55.319Z,99874.91
2022-12-04T18:26:56.737Z,99889.81
2022-12-04T18:31:58.168Z,99887.16
2022-12-04T18:36:59.841Z,99897.53
2022-12-04T18:42:01.362Z,99917.09
2022-12-04T18:47:02.664Z,99911.66
2022-12-04T18:52:04.114Z,99891.47
2022-12-04T18:57:05.517Z,99882.81
2022-12-04T19:02:07.082Z,99889.16
2022-12-04T19:07:08.398Z,99906.47
2022-12-04T19:12:09.896Z,99904.31
2022-12-04T19:17:11.567Z,99902.41
2022-12-04T19:22:13.329Z,99916.75
2022-12-04T19:27:15.166Z,99924.38
2022-12-04T19:32:16.537Z,99912.69
2022-12-04T19:37:18.629Z,99891.88
2022-12-04T19:42:20.247Z,99944.31
2022-12-04T19:47:21.567Z,99936.31
2022-12-04T19:52:23.158Z,99936.91
2022-12-04T19:57:24.517Z,99917.31
2022-12-04T20:02:26.141Z,99937.91
2022-12-04T20:07:27.551Z,99917.59
2022-12-04T20:12:29.132Z,99932.00
2022-12-04T20:17:31.326Z,99940.66
2022-12-04T20:22:34.841Z,99936.13
2022-12-04T20:27:36.224Z,99943.19
2022-12-04T20:32:37.685Z,99956.28
2022-12-04T20:37:39.183Z,99957.59
2022-12-04T20:42:40.705Z,99953.47
2022-12-04T20:47:42.193Z,99968.16
2022-12-04T20:52:43.513Z,99957.31
2022-12-04T20:57:45.015Z,99959.97
2022-12-04T21:02:47.803Z,99959.69
2022-12-04T21:07:50.212Z,99946.66
2022-12-04T21:13:10.219Z,99965.53
2022-12-04T21:18:11.567Z,99948.56
2022-12-04T21:23:12.912Z,99977.00
2022-12-04T21:28:14.306Z,99941.22
2022-12-04T21:33:16.375Z,99958.00
2022-12-04T21:38:17.746Z,99985.41
2022-12-04T21:43:19.125Z,99968.63
2022-12-04T21:48:20.396Z,99975.69
2022-12-04T21:53:22.582Z,99982.28
2022-12-04T21:58:26.572Z,99968.94
2022-12-04T22:03:28.038Z,99993.22
2022-12-04T22:08:29.431Z,99991.34
2022-12-04T22:13:30.882Z,99986.06
2022-12-04T22:18:33.840Z,99989.47
2022-12-04T22:23:35.944Z,99986.81
2022-12-04T22:28:37.724Z,99991.50
2022-12-04T22:33:39.528Z,99993.41
2022-12-04T22:39:06.010Z,99990.03
2022-12-04T22:44:02.917Z,99984.16
2022-12-04T22:49:04.283Z,99985.69
2022-12-04T22:54:07.865Z,99983.41
2022-12-04T22:59:09.213Z,99984.81
2022-12-04T23:04:10.548Z,99985.50
2022-12-04T23:09:14.470Z,99971.63
2022-12-04T23:14:15.955Z,99989.25
2022-12-04T23:19:18.896Z,99982.47
2022-12-04T23:24:20.241Z,99991.13
2022-12-04T23:29:52.315Z,99998.00
2022-12-04T23:34:42.934Z,100003.75
2022-12-04T23:39:44.341Z,100013.34
2022-12-04T23:44:45.954Z,100010.41
2022-12-04T23:49:47.245Z,100007.69
2022-12-04T23:54:48.600Z,100008.34
2022-12-04T23:59:51.704Z,99998.16
